Time;durP1;ratioP1;P1;durP2;ratioP2;P2;SDS_P1;SDS_P2;PMS_P1;PMS_P2;Temp;Humidity;BMP_temperature;BMP_pressure;BME280_temperature;BME280_humidity;BME280_pressure;Samples;Min_cycle;Max_cycle;Signal;HPM_P1;HPM_P2
2023/08/28 00:02:19;;;;;;;12.02;9.40;;;;;;;-145.63;56.19;39153.31;5017733;28;20030;-65
2023/08/28 00:04:44;;;;;;;10.68;8.75;;;;;;;-145.63;56.17;39157.22;5024299;28;20203;-65
2023/08/28 00:07:10;;;;;;;11.93;10.10;;;;;;;-145.63;56.40;39139.63;5026535;28;20040;-65
2023/08/28 00:09:36;;;;;;;12.68;9.27;;;;;;;-145.63;56.26;39159.19;5026324;28;20034;-64
2023/08/28 00:12:02;;;;;;;13.63;9.93;;;;;;;-145.63;55.95;39125.94;5026345;28;20018;-66
2023/08/28 00:14:28;;;;;;;13.43;10.60;;;;;;;-145.63;56.15;39161.13;5026337;28;20053;-66
2023/08/28 00:16:54;;;;;;;14.90;11.10;;;;;;;-145.63;56.46;39122.03;5026281;28;20300;-67
2023/08/28 00:19:20;;;;;;;16.08;12.90;;;;;;;-145.63;56.36;39165.06;5026013;28;20036;-66
2023/08/28 00:21:46;;;;;;;13.30;11.88;;;;;;;-145.63;56.35;39176.78;5026216;28;20081;-67
2023/08/28 00:24:12;;;;;;;17.90;10.43;;;;;;;-145.63;56.37;39141.59;5025761;28;20109;-67
2023/08/28 00:26:37;;;;;;;13.88;10.60;;;;;;;-145.63;56.23;39143.53;5025528;28;20100;-66
2023/08/28 00:29:03;;;;;;;15.32;11.38;;;;;;;-145.63;56.22;39141.59;5025976;28;20230;-67
2023/08/28 00:31:29;;;;;;;16.08;10.93;;;;;;;-145.63;55.93;39133.75;5024573;28;20018;-66
2023/08/28 00:33:55;;;;;;;14.75;10.70;;;;;;;-145.63;55.97;39120.06;5030320;28;20021;-66
2023/08/28 00:36:20;;;;;;;13.00;10.50;;;;;;;-145.63;55.87;39149.41;5032775;28;20029;-66
2023/08/28 00:38:46;;;;;;;15.90;10.65;;;;;;;-145.63;55.82;39145.50;5025847;28;20037;-67
2023/08/28 00:41:12;;;;;;;11.65;10.43;;;;;;;-145.63;55.61;39147.44;5025769;28;20044;-67
2023/08/28 00:43:38;;;;;;;13.90;10.75;;;;;;;-145.63;55.88;39145.50;5024588;28;20097;-67
2023/08/28 00:46:05;;;;;;;13.65;10.48;;;;;;;-145.63;55.84;39180.69;5026064;28;20026;-66
2023/08/28 00:48:31;;;;;;;17.58;11.05;;;;;;;-145.63;55.54;39196.34;5025759;28;20081;-66
2023/08/28 00:50:58;;;;;;;12.55;9.75;;;;;;;-145.63;55.82;39137.69;5025658;28;20018;-65
2023/08/28 00:53:23;;;;;;;12.95;10.23;;;;;;;-145.63;55.45;39129.84;5025385;28;20360;-64
2023/08/28 00:55:50;;;;;;;15.00;11.52;;;;;;;-145.63;55.38;39149.41;5024465;28;20041;-65
2023/08/28 00:58:16;;;;;;;13.70;10.32;;;;;;;-145.63;55.48;39163.09;5025709;28;20026;-65
2023/08/28 01:00:41;;;;;;;13.98;11.20;;;;;;;-145.63;55.45;39147.44;5024919;28;20049;-67
2023/08/28 01:03:07;;;;;;;14.32;10.32;;;;;;;-145.63;55.59;39196.34;5007908;28;20037;-65
2023/08/28 01:05:55;;;;;;;14.43;10.25;;;;;;;-145.63;55.50;39157.22;5025429;28;20033;-65
2023/08/28 01:08:33;;;;;;;15.25;11.50;;;;;;;-145.63;55.28;38382.88;5016615;28;20064;-66
2023/08/28 01:11:23;;;;;;;12.95;10.88;;;;;;;-145.63;55.26;39153.31;5025451;28;20057;-67
2023/08/28 01:14:16;;;;;;;13.60;10.52;;;;;;;-145.63;55.38;39165.06;5024201;28;20057;-67
2023/08/28 01:16:44;;;;;;;11.65;10.27;;;;;;;-145.63;55.36;39153.31;5013922;28;20338;-66
2023/08/28 01:19:26;;;;;;;16.08;11.23;;;;;;;-145.63;55.49;39178.75;5025093;28;20076;-66
2023/08/28 01:21:59;;;;;;;15.38;11.82;;;;;;;-145.63;55.80;39170.91;5024712;28;20026;-66
2023/08/28 01:24:26;;;;;;;16.27;11.88;;;;;;;-145.63;55.42;39168.97;5015782;28;20048;-66
2023/08/28 01:26:52;;;;;;;14.70;11.77;;;;;;;-145.63;55.22;39141.59;5024877;28;20037;-66
2023/08/28 01:29:17;;;;;;;16.15;13.18;;;;;;;-145.63;55.49;39180.69;5024942;28;20021;-65
2023/08/28 01:31:43;;;;;;;13.93;11.00;;;;;;;-145.63;55.45;39165.06;5024567;28;20040;-66
2023/08/28 01:34:09;;;;;;;15.43;11.50;;;;;;;-145.63;55.52;39167.00;5028044;28;20302;-66
2023/08/28 01:36:43;;;;;;;14.50;12.25;;;;;;;-145.63;55.65;39165.06;5032827;28;20029;-65
2023/08/28 01:39:18;;;;;;;14.57;12.25;;;;;;;-145.63;55.36;39172.88;5027170;28;20219;-66
2023/08/28 01:41:46;;;;;;;14.80;12.25;;;;;;;-145.63;55.17;39165.06;5015406;28;20051;-66
2023/08/28 01:44:14;;;;;;;15.63;11.80;;;;;;;-145.63;55.07;38353.53;5024598;28;20076;-66
2023/08/28 01:46:40;;;;;;;13.48;12.00;;;;;;;-145.63;55.20;39170.91;5024484;28;20042;-66
2023/08/28 01:49:06;;;;;;;14.27;12.10;;;;;;;-145.63;54.86;39180.69;5034679;28;20021;-65
2023/08/28 01:51:31;;;;;;;14.55;11.68;;;;;;;-145.63;55.27;39194.38;5030383;28;20029;-66
2023/08/28 01:53:57;;;;;;;13.50;10.88;;;;;;;-145.63;55.51;39184.59;5024508;28;20219;-67
2023/08/28 01:56:24;;;;;;;16.75;12.43;;;;;;;-145.63;55.64;39172.88;5024341;28;20090;-67
2023/08/28 01:58:52;;;;;;;18.10;12.50;;;;;;;-145.63;55.85;39180.69;5025999;28;20172;-66
2023/08/28 02:01:18;;;;;;;15.35;12.25;;;;;;;-145.63;55.75;39170.91;5024224;28;20210;-66
2023/08/28 02:03:44;;;;;;;14.50;12.15;;;;;;;-145.63;55.79;39213.94;5023946;28;20026;-65
2023/08/28 02:06:09;;;;;;;15.55;12.32;;;;;;;-145.63;55.22;39184.59;5024366;28;20218;-67
2023/08/28 02:08:36;;;;;;;16.13;11.60;;;;;;;-145.63;55.38;39188.53;5024524;28;20022;-66
2023/08/28 02:11:02;;;;;;;13.95;12.48;;;;;;;-145.63;55.25;39219.81;5023526;28;20030;-65
2023/08/28 02:13:28;;;;;;;16.35;12.43;;;;;;;-145.63;55.49;39204.16;5023830;28;20025;-66
2023/08/28 02:15:54;;;;;;;13.57;12.07;;;;;;;-145.63;55.67;39223.72;5027011;28;20310;-66
2023/08/28 02:18:19;;;;;;;13.43;11.82;;;;;;;-145.63;55.73;39217.84;5031227;28;20044;-67
2023/08/28 02:20:45;;;;;;;16.25;12.18;;;;;;;-145.63;55.53;39212.00;5024048;28;20195;-67
2023/08/28 02:23:12;;;;;;;13.27;11.88;;;;;;;-145.63;55.74;39212.00;5024230;28;20057;-66
2023/08/28 02:25:42;;;;;;;12.98;11.55;;;;;;;-145.63;55.61;39159.19;5023482;28;20038;-66
2023/08/28 02:28:08;;;;;;;14.63;11.85;;;;;;;-145.63;56.04;39151.38;5023805;28;20053;-66
2023/08/28 02:30:34;;;;;;;17.15;12.93;;;;;;;-145.63;55.49;39182.66;5023646;28;20198;-66
2023/08/28 02:32:59;;;;;;;16.08;12.77;;;;;;;-145.63;55.38;39190.47;5024121;28;20407;-65
2023/08/28 02:35:25;;;;;;;13.88;12.15;;;;;;;-145.63;55.80;39198.31;5024881;28;20038;-66
2023/08/28 02:37:51;;;;;;;14.05;11.50;;;;;;;-145.63;55.59;39168.97;5023485;28;20029;-65
2023/08/28 02:40:16;;;;;;;13.90;11.95;;;;;;;-145.63;55.88;39215.91;5023669;28;20040;-66
2023/08/28 02:42:42;;;;;;;19.48;12.98;;;;;;;-145.63;55.84;39215.91;5023420;28;20033;-66
2023/08/28 02:45:08;;;;;;;13.73;12.43;;;;;;;-145.63;55.63;39200.25;5028995;28;20038;-66
2023/08/28 02:47:34;;;;;;;16.70;11.63;;;;;;;-145.63;55.98;39223.72;5023563;28;20057;-66
2023/08/28 02:49:59;;;;;;;15.85;12.07;;;;;;;-145.63;55.94;39178.75;5031709;28;20827;-65
2023/08/28 02:52:25;;;;;;;14.75;12.07;;;;;;;-145.63;56.01;39184.59;5023318;28;20024;-65
2023/08/28 02:54:51;;;;;;;13.55;11.88;;;;;;;-145.63;56.39;39233.50;5023436;28;20026;-66
2023/08/28 02:57:16;;;;;;;16.75;12.98;;;;;;;-145.63;56.22;39202.22;5023400;28;20215;-66
2023/08/28 02:59:42;;;;;;;15.07;11.65;;;;;;;-145.63;56.18;39196.34;5023362;28;20041;-66
2023/08/28 03:02:08;;;;;;;20.35;13.63;;;;;;;-145.63;56.29;39204.16;5023321;28;20183;-66
2023/08/28 03:04:34;;;;;;;18.00;13.45;;;;;;;-145.63;55.76;39196.34;5022140;28;20030;-66
2023/08/28 03:07:00;;;;;;;22.33;13.27;;;;;;;-145.63;55.66;39215.91;5023612;28;20025;-66
2023/08/28 03:09:26;;;;;;;21.98;14.35;;;;;;;-145.63;55.69;39206.13;5023235;28;20025;-66
2023/08/28 03:11:52;;;;;;;18.92;13.65;;;;;;;-145.63;56.03;39200.25;5022968;28;20060;-67
2023/08/28 03:14:17;;;;;;;19.00;13.43;;;;;;;-145.63;56.10;39198.31;5023509;28;20205;-66
2023/08/28 03:16:43;;;;;;;21.98;14.98;;;;;;;-145.63;55.99;39188.53;5023404;28;20029;-64
2023/08/28 03:19:09;;;;;;;22.77;14.35;;;;;;;-145.63;55.94;39196.34;5023496;28;20360;-66
2023/08/28 03:21:35;;;;;;;20.75;13.73;;;;;;;-145.63;56.04;39243.28;5030266;28;20372;-66
2023/08/28 03:24:00;;;;;;;19.70;13.30;;;;;;;-145.63;56.12;39176.78;5029335;28;20049;-65
2023/08/28 03:26:28;;;;;;;23.30;14.43;;;;;;;-145.63;56.13;39153.31;5027333;28;20029;-67
2023/08/28 03:28:54;;;;;;;18.52;13.32;;;;;;;-145.63;55.84;39161.13;5027141;28;20341;-65
2023/08/28 03:31:19;;;;;;;18.58;13.43;;;;;;;-145.63;55.84;39147.44;5027210;28;20030;-65
2023/08/28 03:33:45;;;;;;;18.23;13.23;;;;;;;-145.63;55.69;39157.22;5029496;28;20056;-65
2023/08/28 03:36:10;;;;;;;18.13;12.48;;;;;;;-145.63;55.70;39170.91;5028471;28;20072;-66
2023/08/28 03:38:36;;;;;;;15.88;12.70;;;;;;;-145.63;55.86;39125.94;5026946;28;20079;-66
2023/08/28 03:41:02;;;;;;;15.60;11.88;;;;;;;-145.63;55.42;39157.22;5026949;28;20384;-66
2023/08/28 03:43:27;;;;;;;14.98;10.40;;;;;;;-145.63;55.35;39161.13;5026752;28;20022;-67
2023/08/28 03:45:53;;;;;;;12.43;10.80;;;;;;;-145.63;54.99;39149.41;5026962;28;20032;-66
2023/08/28 03:48:18;;;;;;;11.98;10.27;;;;;;;-145.63;55.01;39161.13;5026665;28;20249;-67
2023/08/28 03:50:45;;;;;;;14.02;9.63;;;;;;;-145.63;54.56;39063.34;5026736;28;20072;-65
2023/08/28 03:53:11;;;;;;;13.00;9.52;;;;;;;-145.63;54.44;39137.69;5026541;28;20049;-66
2023/08/28 03:55:37;;;;;;;15.13;10.23;;;;;;;-145.63;54.88;38525.59;5026774;28;20265;-66
2023/08/28 03:58:04;;;;;;;11.00;9.80;;;;;;;-145.63;54.75;39141.59;5026497;28;20017;-66
2023/08/28 04:00:32;;;;;;;14.80;9.23;;;;;;;-145.63;54.53;38879.53;5026702;28;20014;-66
2023/08/28 04:02:58;;;;;;;11.75;8.98;;;;;;;-145.63;54.21;39135.72;5026464;28;20017;-66
2023/08/28 04:05:26;;;;;;;13.57;9.25;;;;;;;-145.63;53.61;38859.97;5026505;28;20024;-66
2023/08/28 04:07:52;;;;;;;11.77;9.00;;;;;;;-145.63;53.11;39131.81;5026348;28;20333;-66
2023/08/28 04:10:19;;;;;;;11.02;8.35;;;;;;;-145.63;52.86;39131.81;5026163;28;20034;-67
2023/08/28 04:12:45;;;;;;;11.75;7.65;;;;;;;-145.63;52.54;39125.94;5026099;28;20046;-67
2023/08/28 04:15:11;;;;;;;12.13;7.88;;;;;;;-145.63;52.54;39114.22;5026420;28;20030;-66
2023/08/28 04:17:37;;;;;;;11.60;7.63;;;;;;;-145.63;52.47;39122.03;5026342;28;20048;-65
2023/08/28 04:20:12;;;;;;;10.13;7.63;;;;;;;-145.63;52.61;39065.31;5026357;28;20030;-67
2023/08/28 04:22:43;;;;;;;15.57;8.25;;;;;;;-145.63;52.51;39122.03;5025688;28;20113;-66
2023/08/28 04:25:09;;;;;;;12.50;8.43;;;;;;;-145.63;52.67;39133.75;5025968;28;20061;-66
2023/08/28 04:27:35;;;;;;;13.90;7.55;;;;;;;-145.63;52.25;39110.28;5025884;28;20037;-66
2023/08/28 04:30:01;;;;;;;11.18;7.25;;;;;;;-145.63;51.64;39077.06;5024696;28;20095;-67
2023/08/28 04:32:30;;;;;;;7.78;6.45;;;;;;;-145.63;51.26;39092.69;5034613;28;20030;-66
2023/08/28 04:34:56;;;;;;;13.80;7.30;;;;;;;-145.63;51.42;39098.56;5031499;28;20049;-66
2023/08/28 04:37:26;;;;;;;9.63;7.20;;;;;;;-145.63;50.70;39137.69;5026469;28;20302;-66
2023/08/28 04:39:52;;;;;;;9.82;6.85;;;;;;;-145.63;51.31;39067.28;5036241;28;20029;-65
2023/08/28 04:42:18;;;;;;;12.07;7.15;;;;;;;-145.63;50.94;39098.56;5034786;28;20111;-66
2023/08/28 04:44:44;;;;;;;8.80;6.05;;;;;;;-145.63;49.60;39047.72;5025670;28;20089;-67
2023/08/28 04:47:10;;;;;;;12.05;7.63;;;;;;;-145.63;50.68;39055.53;5025744;28;20093;-66
2023/08/28 04:49:36;;;;;;;8.55;6.07;;;;;;;-145.63;49.44;39045.75;5025517;28;20026;-66
2023/08/28 04:52:02;;;;;;;14.27;6.13;;;;;;;-145.63;49.11;39049.66;5025385;28;20033;-66
2023/08/28 04:54:28;;;;;;;8.45;5.43;;;;;;;-145.63;48.22;39067.28;5025478;28;20029;-66
2023/08/28 04:56:57;;;;;;;14.00;6.47;;;;;;;-145.63;48.23;39020.34;5025086;28;20026;-66
2023/08/28 04:59:22;;;;;;;14.90;6.40;;;;;;;-145.63;48.42;39016.44;5024856;28;20068;-66
2023/08/28 05:01:48;;;;;;;15.85;6.03;;;;;;;-145.63;48.16;39032.06;5029387;28;20029;-65
2023/08/28 05:04:14;;;;;;;9.07;5.90;;;;;;;-145.63;48.25;39004.69;5008316;28;20191;-66
2023/08/28 05:06:39;;;;;;;13.65;6.40;;;;;;;-145.63;48.80;39008.59;5027642;28;20327;-65
2023/08/28 05:09:06;;;;;;;10.00;5.68;;;;;;;-145.63;48.21;39012.50;5024214;28;20026;-66
2023/08/28 05:11:31;;;;;;;8.30;5.30;;;;;;;-145.63;48.29;39004.69;5023292;28;20093;-66
2023/08/28 05:13:57;;;;;;;9.45;5.13;;;;;;;-145.63;48.26;39035.97;5029222;28;20179;-66
2023/08/28 05:16:23;;;;;;;9.13;6.60;;;;;;;-145.63;47.50;39008.59;5036880;28;20037;-67
2023/08/28 05:18:49;;;;;;;9.18;5.93;;;;;;;-145.63;46.82;39012.50;5025666;28;20029;-66
2023/08/28 05:21:15;;;;;;;7.82;5.60;;;;;;;-145.63;47.28;38996.88;5024867;28;20040;-66
2023/08/28 05:23:41;;;;;;;8.00;5.47;;;;;;;-145.63;46.49;38998.81;5028637;28;20077;-66
2023/08/28 05:26:07;;;;;;;15.05;5.80;;;;;;;-145.63;45.66;38983.19;5024775;28;20084;-67
2023/08/28 05:28:35;;;;;;;6.38;4.60;;;;;;;-145.63;45.64;38965.56;5025090;28;20033;-67
2023/08/28 05:31:02;;;;;;;9.35;4.28;;;;;;;-145.63;45.64;38946.03;5024523;28;20053;-67
2023/08/28 05:33:28;;;;;;;5.88;4.65;;;;;;;-145.63;45.07;38975.34;5025168;28;20025;-67
2023/08/28 05:35:54;;;;;;;5.10;3.58;;;;;;;-145.63;43.81;38957.75;5028559;28;20052;-67
2023/08/28 05:38:19;;;;;;;5.82;4.40;;;;;;;-145.63;44.14;38901.03;5029771;28;20321;-67
2023/08/28 05:40:46;;;;;;;8.88;4.15;;;;;;;-145.63;43.13;38936.25;5024592;28;20035;-66
2023/08/28 05:43:11;;;;;;;4.32;3.33;;;;;;;-145.63;41.65;38934.28;5024903;28;20107;-67
2023/08/28 05:45:37;;;;;;;4.28;3.83;;;;;;;-145.63;41.99;38926.47;5022294;28;20029;-67
2023/08/28 05:48:03;;;;;;;5.18;3.35;;;;;;;-145.63;40.77;38889.31;5024547;28;20038;-66
2023/08/28 05:50:29;;;;;;;6.13;3.40;;;;;;;-145.63;42.34;38930.38;5024516;28;20289;-68
2023/08/28 05:52:55;;;;;;;5.15;3.30;;;;;;;-145.63;39.72;38740.69;5024339;28;20025;-66
2023/08/28 05:55:20;;;;;;;5.22;3.90;;;;;;;-145.63;41.04;38916.69;5024452;28;20022;-66
2023/08/28 05:57:46;;;;;;;3.40;3.10;;;;;;;-145.63;40.42;38877.56;5027729;28;20045;-65
2023/08/28 06:00:13;;;;;;;4.57;3.70;;;;;;;-145.63;40.59;38912.78;5025858;28;20048;-67
2023/08/28 06:02:42;;;;;;;5.40;3.63;;;;;;;-145.63;40.20;38873.66;5030634;28;20389;-65
2023/08/28 06:05:09;;;;;;;5.10;3.85;;;;;;;-145.63;41.04;38871.72;5021718;28;20101;-66
2023/08/28 06:07:35;;;;;;;5.07;3.63;;;;;;;-145.63;40.04;38891.28;5020449;28;20026;-66
2023/08/28 06:10:01;;;;;;;5.60;4.03;;;;;;;-145.63;39.93;38859.97;5018008;28;20038;-65
2023/08/28 06:12:27;;;;;;;3.35;3.05;;;;;;;-145.63;39.58;38867.81;5020509;28;20025;-66
2023/08/28 06:14:54;;;;;;;5.75;3.53;;;;;;;-145.63;40.42;38906.91;5017301;28;20064;-66
2023/08/28 06:17:21;;;;;;;6.45;3.70;;;;;;;-145.63;41.09;38861.94;5017645;28;20032;-65
2023/08/28 06:19:46;;;;;;;4.75;3.45;;;;;;;-145.63;40.76;38836.50;5013160;28;20014;-65
2023/08/28 06:22:12;;;;;;;9.25;6.50;;;;;;;-145.63;40.57;38836.50;5016437;28;20069;-66
2023/08/28 06:24:37;;;;;;;8.23;4.63;;;;;;;-145.63;41.63;38848.25;5021205;28;20033;-66
2023/08/28 06:27:03;;;;;;;3.83;3.40;;;;;;;-145.63;40.34;38850.19;5021961;28;20294;-66
2023/08/28 06:29:29;;;;;;;5.45;4.35;;;;;;;-145.63;40.75;38838.47;5023161;28;20149;-66
2023/08/28 06:31:55;;;;;;;4.68;4.28;;;;;;;-145.63;40.13;38813.03;5026645;28;20329;-65
2023/08/28 06:34:20;;;;;;;7.72;5.63;;;;;;;-145.63;40.54;38822.81;5037274;28;20038;-66
2023/08/28 06:36:49;;;;;;;6.15;5.47;;;;;;;-145.63;40.72;38748.50;5025699;28;20198;-66
2023/08/28 06:39:15;;;;;;;7.72;4.30;;;;;;;-145.63;40.39;38832.59;5038480;28;20088;-67
2023/08/28 06:41:40;;;;;;;4.82;3.80;;;;;;;-145.63;39.98;38793.50;5032521;28;20033;-67
2023/08/28 06:44:06;;;;;;;6.50;4.60;;;;;;;-145.63;39.33;38816.97;5030898;28;20022;-67
2023/08/28 06:46:31;;;;;;;4.57;3.58;;;;;;;-145.63;39.33;38807.19;5023199;28;20136;-66
2023/08/28 06:48:58;;;;;;;4.10;3.65;;;;;;;-145.63;38.62;38820.88;5027662;28;20018;-67
2023/08/28 06:51:23;;;;;;;6.55;4.15;;;;;;;-145.63;38.27;38793.50;5026505;28;20028;-66
2023/08/28 06:53:49;;;;;;;6.68;3.88;;;;;;;-145.63;39.21;38785.66;5021759;28;20014;-67
2023/08/28 06:56:15;;;;;;;4.30;3.90;;;;;;;-145.63;39.00;38793.50;5025699;28;20336;-67
2023/08/28 06:58:41;;;;;;;4.10;3.50;;;;;;;-145.63;37.92;38799.34;5019866;28;20033;-66
2023/08/28 07:01:07;;;;;;;4.30;3.90;;;;;;;-145.63;38.21;38760.25;5028713;28;20029;-65
2023/08/28 07:03:32;;;;;;;6.20;3.50;;;;;;;-145.63;38.42;38768.06;5022957;28;20310;-66
2023/08/28 07:05:58;;;;;;;4.60;4.10;;;;;;;-145.63;38.71;38785.66;5019514;28;20033;-65
2023/08/28 07:08:24;;;;;;;29.38;24.35;;;;;;;-145.63;39.04;38750.47;5010498;28;20310;-65
2023/08/28 07:10:49;;;;;;;9.35;5.80;;;;;;;-145.63;39.34;38742.66;5020540;28;20072;-65
2023/08/28 07:13:15;;;;;;;5.20;3.55;;;;;;;-145.63;37.17;38764.16;5023196;28;20030;-64
2023/08/28 07:15:40;;;;;;;5.75;3.33;;;;;;;-145.63;37.41;38742.66;5021650;28;20214;-64
2023/08/28 07:18:06;;;;;;;6.57;5.18;;;;;;;-145.63;38.68;38727.00;5021916;28;20041;-63
2023/08/28 07:20:32;;;;;;;5.10;3.95;;;;;;;-145.63;36.96;38725.06;5021775;28;20093;-65
2023/08/28 07:22:58;;;;;;;4.57;4.03;;;;;;;-145.63;38.63;38742.66;5021416;28;20045;-65
2023/08/28 07:25:24;;;;;;;5.65;3.53;;;;;;;-145.63;38.22;38707.44;5004290;28;20071;-67
2023/08/28 07:27:50;;;;;;;4.00;3.58;;;;;;;-145.63;36.87;38676.16;5022389;28;20022;-64
2023/08/28 07:30:16;;;;;;;4.68;3.65;;;;;;;-145.63;36.64;38727.00;5022243;28;20094;-65
2023/08/28 07:32:42;;;;;;;4.45;3.63;;;;;;;-145.63;38.23;38730.91;5022366;28;20353;-65
2023/08/28 07:35:08;;;;;;;4.20;3.60;;;;;;;-145.63;36.98;38734.81;5022733;28;20037;-65
2023/08/28 07:37:35;;;;;;;4.20;3.75;;;;;;;-145.63;38.33;38662.47;5022449;28;20072;-64
2023/08/28 07:40:01;;;;;;;4.68;3.10;;;;;;;-145.63;36.25;38605.78;5022637;28;20022;-65
2023/08/28 07:42:27;;;;;;;4.63;3.60;;;;;;;-145.63;35.87;38695.72;5012595;28;20033;-64
2023/08/28 07:44:53;;;;;;;7.00;3.90;;;;;;;-145.63;36.62;38691.81;5019978;28;20207;-64
2023/08/28 07:47:19;;;;;;;5.20;4.00;;;;;;;-145.63;36.59;38707.44;5022852;28;20026;-64
2023/08/28 07:49:44;;;;;;;4.50;3.40;;;;;;;-145.63;36.93;38703.53;5022543;28;20041;-65
2023/08/28 07:52:10;;;;;;;3.78;3.05;;;;;;;-145.63;38.21;38684.00;5022583;28;20026;-65
2023/08/28 07:54:36;;;;;;;4.68;3.50;;;;;;;-145.63;35.66;38670.28;5022687;28;20317;-65
2023/08/28 07:57:06;;;;;;;6.90;3.72;;;;;;;-145.63;36.25;38662.47;5010290;28;20030;-66
2023/08/28 07:59:31;;;;;;;5.70;3.67;;;;;;;-145.63;36.28;38652.69;5019193;28;20056;-67
2023/08/28 08:01:57;;;;;;;4.30;3.75;;;;;;;-145.63;35.09;38601.84;5022577;28;20025;-66
2023/08/28 08:04:25;;;;;;;6.30;3.58;;;;;;;-145.63;35.10;38648.78;5022264;28;20053;-68
2023/08/28 08:06:50;;;;;;;6.03;4.00;;;;;;;-145.63;36.69;38631.19;5022547;28;20037;-67
2023/08/28 08:09:16;;;;;;;4.60;3.88;;;;;;;-145.63;34.81;38574.47;5023356;28;20030;-66
2023/08/28 08:11:42;;;;;;;5.20;3.67;;;;;;;-145.63;35.93;38570.56;5025896;28;20037;-65
2023/08/28 08:14:08;;;;;;;5.28;3.83;;;;;;;-145.63;36.45;38597.94;5026124;28;20030;-63
2023/08/28 08:16:33;;;;;;;5.43;3.42;;;;;;;-145.63;34.67;38644.88;5025998;28;20033;-63
2023/08/28 08:18:59;;;;;;;4.63;4.13;;;;;;;-145.63;36.19;38695.72;5025800;28;20026;-65
2023/08/28 08:21:24;;;;;;;7.28;4.10;;;;;;;-145.63;35.01;38648.78;5025715;28;20368;-66
2023/08/28 08:23:50;;;;;;;3.47;3.22;;;;;;;-145.63;35.95;38625.31;5026175;28;20052;-65
2023/08/28 08:26:16;;;;;;;3.92;3.53;;;;;;;-145.63;35.60;38619.47;5025668;28;20196;-65
2023/08/28 08:28:41;;;;;;;6.03;4.57;;;;;;;-145.63;35.80;38619.47;5025663;28;20124;-65
2023/08/28 08:31:07;;;;;;;6.75;3.75;;;;;;;-145.63;34.38;38613.59;5025907;28;20026;-65
2023/08/28 08:33:33;;;;;;;4.95;4.28;;;;;;;-145.63;34.48;38652.69;5025492;28;20315;-65
2023/08/28 08:35:59;;;;;;;5.47;4.10;;;;;;;-145.63;36.23;38676.16;5025488;28;20021;-65
2023/08/28 08:38:24;;;;;;;4.07;3.67;;;;;;;-145.63;36.73;38652.69;5025432;28;20069;-65
2023/08/28 08:40:52;;;;;;;5.07;3.58;;;;;;;-145.63;37.00;38754.38;5025602;28;20034;-64
2023/08/28 08:43:19;;;;;;;4.93;4.45;;;;;;;-145.63;36.46;38652.69;5025504;28;20093;-65
2023/08/28 08:45:48;;;;;;;5.35;3.90;;;;;;;-145.63;36.82;38676.16;5023121;28;20037;-65
2023/08/28 08:48:21;;;;;;;4.90;4.40;;;;;;;-145.63;36.82;38703.53;5025289;28;20029;-65
2023/08/28 08:50:47;;;;;;;4.80;4.25;;;;;;;-145.63;38.05;38715.28;5025589;28;20085;-65
2023/08/28 08:53:28;;;;;;;5.13;4.10;;;;;;;-145.63;35.98;38578.41;5025241;28;20033;-66
2023/08/28 08:55:57;;;;;;;4.78;4.10;;;;;;;-145.63;36.89;38515.81;5024170;28;20028;-64
2023/08/28 08:58:24;;;;;;;4.60;3.65;;;;;;;-145.63;35.51;38609.69;5025275;28;20041;-64
2023/08/28 09:00:51;;;;;;;5.20;3.65;;;;;;;-145.63;35.14;38611.63;5025351;28;20198;-66
2023/08/28 09:03:17;;;;;;;4.90;3.90;;;;;;;-145.63;34.75;38529.50;5025053;28;20161;-64
2023/08/28 09:05:44;;;;;;;4.20;3.80;;;;;;;-145.63;34.47;38466.94;5023819;28;20207;-64
2023/08/28 09:08:12;;;;;;;10.32;4.05;;;;;;;-145.63;33.85;38500.19;5024930;28;20314;-66
2023/08/28 09:10:38;;;;;;;4.63;3.88;;;;;;;-145.63;33.40;38455.22;5024938;28;20064;-64
2023/08/28 09:13:04;;;;;;;4.40;4.00;;;;;;;-145.63;33.03;38429.78;5023724;28;20026;-64
2023/08/28 09:15:29;;;;;;;4.20;3.80;;;;;;;-145.63;34.36;38464.97;5024864;28;20106;-63
2023/08/28 09:17:55;;;;;;;5.15;4.22;;;;;;;-145.63;34.12;38531.47;5025093;28;20026;-64
2023/08/28 09:20:21;;;;;;;4.57;4.15;;;;;;;-145.63;34.64;38549.06;5024722;28;20049;-63
2023/08/28 09:22:49;;;;;;;4.70;4.28;;;;;;;-145.63;35.04;38554.94;5024971;28;20049;-64
2023/08/28 09:25:19;;;;;;;5.50;4.30;;;;;;;-145.63;34.09;38584.25;5024787;28;20045;-65
2023/08/28 09:27:47;;;;;;;4.22;3.88;;;;;;;-145.63;34.87;38543.19;5019394;28;20097;-64
2023/08/28 09:30:38;;;;;;;5.85;3.90;;;;;;;-145.63;34.57;38621.41;5024376;28;20054;-66
2023/08/28 09:33:06;;;;;;;;;;;;;;;-145.63;34.22;38644.88;5022347;28;20048;-65
2023/08/28 09:35:40;;;;;;;5.00;4.38;;;;;;;-145.63;35.21;38666.38;5024493;28;19933;-64
2023/08/28 09:38:06;;;;;;;5.07;4.45;;;;;;;-145.63;35.55;38652.69;5024435;28;20270;-64
2023/08/28 09:40:37;;;;;;;6.40;4.78;;;;;;;-145.63;36.12;38672.25;5024496;28;20190;-64
2023/08/28 09:43:13;;;;;;;5.95;4.35;;;;;;;-145.63;35.75;38668.34;5006846;28;20022;-64
2023/08/28 09:45:40;;;;;;;5.55;4.93;;;;;;;-145.63;36.66;38639.00;5024220;28;20053;-65
2023/08/28 09:48:07;;;;;;;6.60;4.43;;;;;;;-145.63;36.18;38650.75;5024500;28;20060;-64
2023/08/28 09:50:34;;;;;;;8.23;5.50;;;;;;;-145.63;36.81;38658.56;5005770;28;20034;-63
2023/08/28 09:53:09;;;;;;;6.75;5.13;;;;;;;-145.63;37.09;38617.50;5019371;28;20375;-64
2023/08/28 09:55:38;;;;;;;7.95;5.20;;;;;;;-145.63;35.96;38582.31;5020099;28;20117;-63
2023/08/28 09:58:10;;;;;;;6.63;4.38;;;;;;;-145.63;35.11;38611.63;5018772;28;20072;-63
2023/08/28 10:00:40;;;;;;;5.45;4.57;;;;;;;-145.63;34.71;38656.59;5024037;28;20045;-63
2023/08/28 10:03:10;;;;;;;5.65;4.95;;;;;;;-145.63;34.50;38631.19;5024071;28;20246;-63
2023/08/28 10:05:42;;;;;;;6.30;4.38;;;;;;;-145.63;34.70;38703.53;5023688;28;20052;-63
2023/08/28 10:08:10;;;;;;;6.88;4.72;;;;;;;-145.63;35.59;38734.81;5023720;28;20029;-63
2023/08/28 10:10:38;;;;;;;5.80;4.43;;;;;;;-145.63;36.73;38691.81;5023775;28;20034;-64
2023/08/28 10:13:06;;;;;;;7.13;5.28;;;;;;;-145.63;36.17;38703.53;5023530;28;20076;-64
2023/08/28 10:15:34;;;;;;;6.00;4.80;;;;;;;-145.63;36.15;38676.16;5023699;28;20038;-63
2023/08/28 10:18:09;;;;;;;6.45;4.80;;;;;;;-145.63;35.29;38693.75;5021746;28;20322;-63
2023/08/28 10:20:36;;;;;;;6.13;4.97;;;;;;;-145.63;35.83;38709.41;5027094;28;20056;-64
2023/08/28 10:23:03;;;;;;;5.80;5.20;;;;;;;-145.63;34.99;38723.09;5022993;28;20046;-63
2023/08/28 10:25:32;;;;;;;5.50;4.90;;;;;;;-145.63;35.22;38703.53;5027564;28;20038;-64
2023/08/28 10:27:58;;;;;;;5.72;4.70;;;;;;;-145.63;35.03;38695.72;5026042;28;20030;-62
2023/08/28 10:30:28;;;;;;;7.60;4.90;;;;;;;-145.63;35.15;38746.56;5023238;28;20253;-64
2023/08/28 10:32:59;;;;;;;6.47;5.05;;;;;;;-145.63;35.47;38109.13;5018272;28;20025;-63
2023/08/28 10:35:25;;;;;;;5.65;5.07;;;;;;;-145.63;35.56;38707.44;5018738;28;20065;-63
2023/08/28 10:37:53;;;;;;;7.78;5.15;;;;;;;-145.63;35.90;38727.00;5020706;28;20037;-64
2023/08/28 10:40:21;;;;;;;6.13;5.05;;;;;;;-145.63;35.53;38644.88;5017633;28;20061;-63
2023/08/28 10:42:48;;;;;;;5.97;5.28;;;;;;;-145.63;36.04;38637.06;5022416;28;20040;-64
2023/08/28 10:45:14;;;;;;;6.43;5.07;;;;;;;-145.63;35.23;38670.28;5023742;28;20318;-64
2023/08/28 10:47:39;;;;;;;5.72;5.13;;;;;;;-145.63;35.71;38646.84;5021750;28;20041;-63
2023/08/28 10:50:06;;;;;;;5.68;4.90;;;;;;;-145.63;34.60;38615.53;5017162;28;20109;-64
2023/08/28 10:52:32;;;;;;;5.18;4.70;;;;;;;-145.63;34.46;38586.22;5020061;28;20025;-64
2023/08/28 10:55:05;;;;;;;4.97;4.47;;;;;;;-145.63;33.29;38644.88;5015815;28;20158;-64
2023/08/28 10:57:31;;;;;;;6.85;4.72;;;;;;;-145.63;33.44;38640.97;5025900;28;20038;-64
2023/08/28 11:00:25;;;;;;;5.72;4.72;;;;;;;-145.63;34.06;38644.88;5026161;28;20321;-64
2023/08/28 11:03:11;;;;;;;5.97;5.22;;;;;;;-145.63;34.29;38662.47;5020920;28;20037;-63
2023/08/28 11:05:39;;;;;;;6.72;5.50;;;;;;;-145.63;35.49;38648.78;5030744;28;20052;-64
2023/08/28 11:08:07;;;;;;;7.43;5.25;;;;;;;-145.63;34.45;38687.91;5007545;28;20323;-64
2023/08/28 11:10:33;;;;;;;5.97;5.38;;;;;;;-145.63;35.15;38625.31;5023072;28;20026;-64
2023/08/28 11:13:05;;;;;;;7.57;5.28;;;;;;;-145.63;33.51;38727.00;5023164;28;20018;-63